sensor_id;sensor_type;location;lat;lon;timestamp;P1;durP1;ratioP1;P2;durP2;ratioP2
63370;SDS011;49504;48.336;14.472;2023-07-09T00:04:53;5.00;;;2.47;;
63370;SDS011;49504;48.336;14.472;2023-07-09T00:08:16;4.60;;;2.50;;
63370;SDS011;49504;48.336;14.472;2023-07-09T00:11:46;4.90;;;2.38;;
63370;SDS011;49504;48.336;14.472;2023-07-09T00:15:10;4.70;;;2.45;;
63370;SDS011;49504;48.336;14.472;2023-07-09T00:18:32;4.95;;;2.25;;
63370;SDS011;49504;48.336;14.472;2023-07-09T00:21:54;4.05;;;2.38;;
63370;SDS011;49504;48.336;14.472;2023-07-09T00:25:16;4.75;;;2.60;;
63370;SDS011;49504;48.336;14.472;2023-07-09T00:28:38;4.82;;;2.25;;
63370;SDS011;49504;48.336;14.472;2023-07-09T00:32:01;4.70;;;2.30;;
63370;SDS011;49504;48.336;14.472;2023-07-09T00:35:22;5.13;;;2.40;;
63370;SDS011;49504;48.336;14.472;2023-07-09T00:38:45;6.82;;;2.33;;
63370;SDS011;49504;48.336;14.472;2023-07-09T00:42:09;5.40;;;2.45;;
63370;SDS011;49504;48.336;14.472;2023-07-09T00:45:35;4.63;;;2.50;;
63370;SDS011;49504;48.336;14.472;2023-07-09T00:50:24;3.90;;;2.08;;
63370;SDS011;49504;48.336;14.472;2023-07-09T00:57:03;4.20;;;2.05;;
63370;SDS011;49504;48.336;14.472;2023-07-09T01:00:36;4.43;;;2.42;;
63370;SDS011;49504;48.336;14.472;2023-07-09T01:04:04;4.40;;;2.15;;
63370;SDS011;49504;48.336;14.472;2023-07-09T01:07:26;4.07;;;2.15;;
63370;SDS011;49504;48.336;14.472;2023-07-09T01:10:48;3.65;;;2.05;;
63370;SDS011;49504;48.336;14.472;2023-07-09T01:14:11;4.70;;;2.25;;
63370;SDS011;49504;48.336;14.472;2023-07-09T01:17:38;5.55;;;2.33;;
63370;SDS011;49504;48.336;14.472;2023-07-09T01:21:18;5.93;;;2.63;;
63370;SDS011;49504;48.336;14.472;2023-07-09T01:24:50;4.57;;;2.38;;
63370;SDS011;49504;48.336;14.472;2023-07-09T01:28:15;4.85;;;2.67;;
63370;SDS011;49504;48.336;14.472;2023-07-09T01:31:36;3.72;;;1.80;;
63370;SDS011;49504;48.336;14.472;2023-07-09T01:34:58;3.55;;;1.98;;
63370;SDS011;49504;48.336;14.472;2023-07-09T01:38:22;4.47;;;2.28;;
63370;SDS011;49504;48.336;14.472;2023-07-09T01:41:44;4.28;;;2.13;;
63370;SDS011;49504;48.336;14.472;2023-07-09T01:45:22;3.95;;;2.10;;
63370;SDS011;49504;48.336;14.472;2023-07-09T01:48:44;4.30;;;2.30;;
63370;SDS011;49504;48.336;14.472;2023-07-09T01:52:06;4.55;;;2.20;;
63370;SDS011;49504;48.336;14.472;2023-07-09T01:55:28;4.80;;;2.33;;
63370;SDS011;49504;48.336;14.472;2023-07-09T01:58:51;4.07;;;2.25;;
63370;SDS011;49504;48.336;14.472;2023-07-09T02:02:15;4.63;;;2.15;;
63370;SDS011;49504;48.336;14.472;2023-07-09T02:05:37;4.22;;;2.08;;
63370;SDS011;49504;48.336;14.472;2023-07-09T02:08:58;4.57;;;2.10;;
63370;SDS011;49504;48.336;14.472;2023-07-09T02:12:19;4.47;;;1.83;;
63370;SDS011;49504;48.336;14.472;2023-07-09T02:15:40;4.30;;;2.00;;
63370;SDS011;49504;48.336;14.472;2023-07-09T02:19:04;4.00;;;2.22;;
63370;SDS011;49504;48.336;14.472;2023-07-09T02:24:57;4.57;;;2.25;;
63370;SDS011;49504;48.336;14.472;2023-07-09T02:30:00;4.32;;;2.30;;
63370;SDS011;49504;48.336;14.472;2023-07-09T02:33:22;4.57;;;2.58;;
63370;SDS011;49504;48.336;14.472;2023-07-09T02:36:43;4.72;;;2.10;;
63370;SDS011;49504;48.336;14.472;2023-07-09T02:40:05;4.10;;;2.22;;
63370;SDS011;49504;48.336;14.472;2023-07-09T02:43:28;4.50;;;2.13;;
63370;SDS011;49504;48.336;14.472;2023-07-09T02:46:51;4.35;;;2.28;;
63370;SDS011;49504;48.336;14.472;2023-07-09T02:50:12;4.53;;;2.20;;
63370;SDS011;49504;48.336;14.472;2023-07-09T02:53:33;4.45;;;2.35;;
63370;SDS011;49504;48.336;14.472;2023-07-09T02:56:55;4.63;;;2.08;;
63370;SDS011;49504;48.336;14.472;2023-07-09T03:00:16;4.28;;;2.10;;
63370;SDS011;49504;48.336;14.472;2023-07-09T03:03:39;3.65;;;1.95;;
63370;SDS011;49504;48.336;14.472;2023-07-09T03:07:00;4.32;;;2.08;;
63370;SDS011;49504;48.336;14.472;2023-07-09T03:10:22;4.53;;;2.22;;
63370;SDS011;49504;48.336;14.472;2023-07-09T03:13:43;4.00;;;1.90;;
63370;SDS011;49504;48.336;14.472;2023-07-09T03:17:04;4.78;;;2.08;;
63370;SDS011;49504;48.336;14.472;2023-07-09T03:20:27;3.47;;;1.83;;
63370;SDS011;49504;48.336;14.472;2023-07-09T03:23:48;4.00;;;1.80;;
63370;SDS011;49504;48.336;14.472;2023-07-09T03:27:09;4.47;;;2.05;;
63370;SDS011;49504;48.336;14.472;2023-07-09T03:30:30;3.85;;;1.95;;
63370;SDS011;49504;48.336;14.472;2023-07-09T03:33:52;4.15;;;2.05;;
63370;SDS011;49504;48.336;14.472;2023-07-09T03:37:14;4.13;;;1.98;;
63370;SDS011;49504;48.336;14.472;2023-07-09T03:40:35;4.40;;;2.35;;
63370;SDS011;49504;48.336;14.472;2023-07-09T03:45:17;4.35;;;2.08;;
63370;SDS011;49504;48.336;14.472;2023-07-09T03:48:38;4.53;;;2.00;;
63370;SDS011;49504;48.336;14.472;2023-07-09T03:51:59;4.90;;;2.30;;
63370;SDS011;49504;48.336;14.472;2023-07-09T03:55:21;4.28;;;1.90;;
63370;SDS011;49504;48.336;14.472;2023-07-09T03:58:42;3.78;;;1.77;;
63370;SDS011;49504;48.336;14.472;2023-07-09T04:02:05;4.22;;;1.90;;
63370;SDS011;49504;48.336;14.472;2023-07-09T04:05:26;4.70;;;2.38;;
63370;SDS011;49504;48.336;14.472;2023-07-09T04:08:48;5.38;;;1.83;;
63370;SDS011;49504;48.336;14.472;2023-07-09T04:12:09;3.97;;;2.00;;
63370;SDS011;49504;48.336;14.472;2023-07-09T04:15:31;4.05;;;1.80;;
63370;SDS011;49504;48.336;14.472;2023-07-09T04:18:54;4.38;;;2.20;;
63370;SDS011;49504;48.336;14.472;2023-07-09T04:24:39;4.28;;;2.22;;
63370;SDS011;49504;48.336;14.472;2023-07-09T04:28:00;4.65;;;2.53;;
63370;SDS011;49504;48.336;14.472;2023-07-09T04:31:21;4.45;;;2.10;;
63370;SDS011;49504;48.336;14.472;2023-07-09T04:34:43;4.63;;;2.35;;
63370;SDS011;49504;48.336;14.472;2023-07-09T04:38:04;4.03;;;2.25;;
63370;SDS011;49504;48.336;14.472;2023-07-09T04:41:26;4.55;;;2.20;;
63370;SDS011;49504;48.336;14.472;2023-07-09T04:44:47;4.68;;;2.17;;
63370;SDS011;49504;48.336;14.472;2023-07-09T04:48:09;4.28;;;2.00;;
63370;SDS011;49504;48.336;14.472;2023-07-09T04:51:30;4.35;;;2.13;;
63370;SDS011;49504;48.336;14.472;2023-07-09T04:54:51;4.55;;;2.28;;
63370;SDS011;49504;48.336;14.472;2023-07-09T04:58:13;4.45;;;2.45;;
63370;SDS011;49504;48.336;14.472;2023-07-09T05:01:34;4.40;;;2.20;;
63370;SDS011;49504;48.336;14.472;2023-07-09T05:04:55;4.20;;;2.05;;
63370;SDS011;49504;48.336;14.472;2023-07-09T05:08:17;5.15;;;2.33;;
63370;SDS011;49504;48.336;14.472;2023-07-09T05:11:38;4.50;;;2.35;;
63370;SDS011;49504;48.336;14.472;2023-07-09T05:15:01;5.22;;;2.83;;
63370;SDS011;49504;48.336;14.472;2023-07-09T05:18:22;4.07;;;2.38;;
63370;SDS011;49504;48.336;14.472;2023-07-09T05:21:44;4.60;;;1.90;;
63370;SDS011;49504;48.336;14.472;2023-07-09T05:25:08;5.35;;;2.88;;
63370;SDS011;49504;48.336;14.472;2023-07-09T05:28:34;4.45;;;2.40;;
63370;SDS011;49504;48.336;14.472;2023-07-09T05:31:59;4.10;;;2.13;;
63370;SDS011;49504;48.336;14.472;2023-07-09T05:35:21;4.47;;;2.50;;
63370;SDS011;49504;48.336;14.472;2023-07-09T05:38:42;4.53;;;2.63;;
63370;SDS011;49504;48.336;14.472;2023-07-09T05:42:03;4.78;;;2.40;;
63370;SDS011;49504;48.336;14.472;2023-07-09T05:45:26;4.47;;;2.58;;
63370;SDS011;49504;48.336;14.472;2023-07-09T05:48:48;5.05;;;2.45;;
63370;SDS011;49504;48.336;14.472;2023-07-09T05:52:09;5.70;;;2.70;;
63370;SDS011;49504;48.336;14.472;2023-07-09T05:55:30;4.38;;;2.40;;
63370;SDS011;49504;48.336;14.472;2023-07-09T05:58:51;4.75;;;2.53;;
63370;SDS011;49504;48.336;14.472;2023-07-09T06:02:13;5.57;;;2.75;;
63370;SDS011;49504;48.336;14.472;2023-07-09T06:05:37;4.47;;;2.40;;
63370;SDS011;49504;48.336;14.472;2023-07-09T06:08:58;5.55;;;2.90;;
63370;SDS011;49504;48.336;14.472;2023-07-09T06:12:19;4.60;;;2.47;;
63370;SDS011;49504;48.336;14.472;2023-07-09T06:15:40;4.72;;;2.38;;
63370;SDS011;49504;48.336;14.472;2023-07-09T06:19:01;6.80;;;2.60;;
63370;SDS011;49504;48.336;14.472;2023-07-09T06:22:24;5.18;;;2.83;;
63370;SDS011;49504;48.336;14.472;2023-07-09T06:25:45;4.55;;;2.30;;
63370;SDS011;49504;48.336;14.472;2023-07-09T06:29:07;4.50;;;2.58;;
63370;SDS011;49504;48.336;14.472;2023-07-09T06:32:28;5.78;;;2.80;;
63370;SDS011;49504;48.336;14.472;2023-07-09T06:35:50;4.95;;;2.35;;
63370;SDS011;49504;48.336;14.472;2023-07-09T06:39:13;5.18;;;2.75;;
63370;SDS011;49504;48.336;14.472;2023-07-09T06:42:35;4.55;;;2.42;;
63370;SDS011;49504;48.336;14.472;2023-07-09T06:46:08;4.55;;;2.35;;
63370;SDS011;49504;48.336;14.472;2023-07-09T06:49:32;4.65;;;2.15;;
63370;SDS011;49504;48.336;14.472;2023-07-09T06:52:53;4.30;;;2.33;;
63370;SDS011;49504;48.336;14.472;2023-07-09T06:56:16;5.72;;;2.40;;
63370;SDS011;49504;48.336;14.472;2023-07-09T06:59:37;5.63;;;2.63;;
63370;SDS011;49504;48.336;14.472;2023-07-09T07:02:58;7.22;;;2.50;;
63370;SDS011;49504;48.336;14.472;2023-07-09T07:06:20;4.47;;;2.42;;
63370;SDS011;49504;48.336;14.472;2023-07-09T07:09:41;4.93;;;2.80;;
63370;SDS011;49504;48.336;14.472;2023-07-09T07:13:03;4.68;;;2.35;;
63370;SDS011;49504;48.336;14.472;2023-07-09T07:16:24;5.15;;;2.60;;
63370;SDS011;49504;48.336;14.472;2023-07-09T07:19:45;5.03;;;2.53;;
63370;SDS011;49504;48.336;14.472;2023-07-09T07:23:06;5.07;;;2.35;;
63370;SDS011;49504;48.336;14.472;2023-07-09T07:29:29;5.60;;;3.00;;
63370;SDS011;49504;48.336;14.472;2023-07-09T07:32:50;4.68;;;2.38;;
63370;SDS011;49504;48.336;14.472;2023-07-09T07:36:11;5.10;;;2.78;;
63370;SDS011;49504;48.336;14.472;2023-07-09T07:39:33;4.88;;;2.65;;
63370;SDS011;49504;48.336;14.472;2023-07-09T07:42:54;6.60;;;2.03;;
63370;SDS011;49504;48.336;14.472;2023-07-09T07:46:16;4.63;;;2.40;;
63370;SDS011;49504;48.336;14.472;2023-07-09T07:49:37;4.55;;;2.70;;
63370;SDS011;49504;48.336;14.472;2023-07-09T07:52:59;4.15;;;2.25;;
63370;SDS011;49504;48.336;14.472;2023-07-09T07:56:20;4.47;;;2.47;;
63370;SDS011;49504;48.336;14.472;2023-07-09T07:59:41;4.53;;;2.53;;
63370;SDS011;49504;48.336;14.472;2023-07-09T08:03:03;4.50;;;2.45;;
63370;SDS011;49504;48.336;14.472;2023-07-09T08:06:24;6.20;;;2.88;;
63370;SDS011;49504;48.336;14.472;2023-07-09T08:09:46;4.65;;;2.17;;
63370;SDS011;49504;48.336;14.472;2023-07-09T08:13:07;4.60;;;2.42;;
63370;SDS011;49504;48.336;14.472;2023-07-09T08:16:29;5.03;;;2.58;;
63370;SDS011;49504;48.336;14.472;2023-07-09T08:19:52;6.30;;;3.17;;
63370;SDS011;49504;48.336;14.472;2023-07-09T08:23:14;5.45;;;3.08;;
63370;SDS011;49504;48.336;14.472;2023-07-09T08:26:35;4.88;;;2.55;;
63370;SDS011;49504;48.336;14.472;2023-07-09T08:29:56;5.05;;;2.40;;
63370;SDS011;49504;48.336;14.472;2023-07-09T08:33:17;5.15;;;2.50;;
63370;SDS011;49504;48.336;14.472;2023-07-09T08:36:40;5.03;;;2.55;;
63370;SDS011;49504;48.336;14.472;2023-07-09T08:40:02;5.90;;;3.30;;
63370;SDS011;49504;48.336;14.472;2023-07-09T08:43:35;5.80;;;2.78;;
63370;SDS011;49504;48.336;14.472;2023-07-09T08:47:11;4.47;;;2.40;;
63370;SDS011;49504;48.336;14.472;2023-07-09T08:50:39;4.85;;;2.72;;
63370;SDS011;49504;48.336;14.472;2023-07-09T08:54:09;6.82;;;3.30;;
63370;SDS011;49504;48.336;14.472;2023-07-09T08:57:38;6.30;;;3.67;;
63370;SDS011;49504;48.336;14.472;2023-07-09T09:01:02;8.55;;;4.65;;
63370;SDS011;49504;48.336;14.472;2023-07-09T09:04:27;8.70;;;4.85;;
63370;SDS011;49504;48.336;14.472;2023-07-09T09:07:53;7.68;;;4.93;;
63370;SDS011;49504;48.336;14.472;2023-07-09T09:11:21;7.65;;;4.30;;
63370;SDS011;49504;48.336;14.472;2023-07-09T09:14:52;7.97;;;4.93;;
63370;SDS011;49504;48.336;14.472;2023-07-09T09:18:21;8.02;;;5.00;;
63370;SDS011;49504;48.336;14.472;2023-07-09T09:21:46;7.38;;;4.35;;
63370;SDS011;49504;48.336;14.472;2023-07-09T09:25:15;7.63;;;4.45;;
63370;SDS011;49504;48.336;14.472;2023-07-09T09:28:46;6.60;;;4.05;;
63370;SDS011;49504;48.336;14.472;2023-07-09T09:32:14;6.50;;;4.38;;
63370;SDS011;49504;48.336;14.472;2023-07-09T09:35:43;9.50;;;6.93;;
63370;SDS011;49504;48.336;14.472;2023-07-09T09:39:05;10.90;;;6.80;;
63370;SDS011;49504;48.336;14.472;2023-07-09T09:42:30;12.55;;;9.57;;
63370;SDS011;49504;48.336;14.472;2023-07-09T09:45:54;13.20;;;9.50;;
63370;SDS011;49504;48.336;14.472;2023-07-09T09:49:15;16.48;;;12.88;;
63370;SDS011;49504;48.336;14.472;2023-07-09T09:52:36;18.60;;;14.88;;
63370;SDS011;49504;48.336;14.472;2023-07-09T09:55:58;21.45;;;16.98;;
63370;SDS011;49504;48.336;14.472;2023-07-09T09:59:19;19.48;;;16.35;;
63370;SDS011;49504;48.336;14.472;2023-07-09T10:02:52;21.75;;;17.42;;
63370;SDS011;49504;48.336;14.472;2023-07-09T10:06:19;16.70;;;14.07;;
63370;SDS011;49504;48.336;14.472;2023-07-09T10:09:46;17.23;;;13.57;;
63370;SDS011;49504;48.336;14.472;2023-07-09T10:13:13;17.20;;;13.45;;
63370;SDS011;49504;48.336;14.472;2023-07-09T10:16:43;17.35;;;13.45;;
63370;SDS011;49504;48.336;14.472;2023-07-09T10:20:19;15.30;;;12.18;;
63370;SDS011;49504;48.336;14.472;2023-07-09T10:23:47;16.90;;;12.50;;
63370;SDS011;49504;48.336;14.472;2023-07-09T10:27:21;16.98;;;11.38;;
63370;SDS011;49504;48.336;14.472;2023-07-09T10:30:53;13.98;;;11.15;;
63370;SDS011;49504;48.336;14.472;2023-07-09T10:34:26;15.00;;;10.90;;
63370;SDS011;49504;48.336;14.472;2023-07-09T10:38:06;16.27;;;11.70;;
63370;SDS011;49504;48.336;14.472;2023-07-09T10:41:40;15.60;;;10.88;;
63370;SDS011;49504;48.336;14.472;2023-07-09T10:45:04;14.95;;;11.00;;
63370;SDS011;49504;48.336;14.472;2023-07-09T10:48:31;14.98;;;11.07;;
63370;SDS011;49504;48.336;14.472;2023-07-09T10:52:00;16.17;;;11.73;;
63370;SDS011;49504;48.336;14.472;2023-07-09T10:55:28;14.98;;;11.45;;
63370;SDS011;49504;48.336;14.472;2023-07-09T10:58:57;13.18;;;11.02;;
63370;SDS011;49504;48.336;14.472;2023-07-09T11:02:25;13.93;;;10.05;;
63370;SDS011;49504;48.336;14.472;2023-07-09T11:05:49;15.47;;;10.33;;
63370;SDS011;49504;48.336;14.472;2023-07-09T11:09:13;12.98;;;9.73;;
63370;SDS011;49504;48.336;14.472;2023-07-09T11:12:45;15.07;;;10.25;;
63370;SDS011;49504;48.336;14.472;2023-07-09T11:16:28;13.52;;;10.30;;
63370;SDS011;49504;48.336;14.472;2023-07-09T11:19:59;12.82;;;9.10;;
63370;SDS011;49504;48.336;14.472;2023-07-09T11:23:22;12.50;;;8.80;;
63370;SDS011;49504;48.336;14.472;2023-07-09T11:26:46;12.32;;;9.25;;
63370;SDS011;49504;48.336;14.472;2023-07-09T11:30:19;11.55;;;8.82;;
63370;SDS011;49504;48.336;14.472;2023-07-09T11:33:47;10.05;;;8.32;;
63370;SDS011;49504;48.336;14.472;2023-07-09T11:37:16;11.00;;;8.50;;
63370;SDS011;49504;48.336;14.472;2023-07-09T11:40:45;12.52;;;8.65;;
63370;SDS011;49504;48.336;14.472;2023-07-09T11:44:15;12.15;;;9.07;;
63370;SDS011;49504;48.336;14.472;2023-07-09T11:47:42;11.60;;;8.82;;
63370;SDS011;49504;48.336;14.472;2023-07-09T11:51:08;11.98;;;8.43;;
63370;SDS011;49504;48.336;14.472;2023-07-09T11:54:37;12.35;;;7.95;;
63370;SDS011;49504;48.336;14.472;2023-07-09T11:58:03;10.80;;;8.07;;
63370;SDS011;49504;48.336;14.472;2023-07-09T12:01:41;10.82;;;8.10;;
63370;SDS011;49504;48.336;14.472;2023-07-09T12:05:08;11.43;;;8.13;;
63370;SDS011;49504;48.336;14.472;2023-07-09T12:08:39;9.77;;;7.13;;
63370;SDS011;49504;48.336;14.472;2023-07-09T12:12:16;9.80;;;7.38;;
63370;SDS011;49504;48.336;14.472;2023-07-09T12:15:40;11.35;;;7.90;;
63370;SDS011;49504;48.336;14.472;2023-07-09T12:19:01;11.73;;;8.60;;
63370;SDS011;49504;48.336;14.472;2023-07-09T12:22:23;10.70;;;7.70;;
63370;SDS011;49504;48.336;14.472;2023-07-09T12:25:47;10.75;;;8.13;;
63370;SDS011;49504;48.336;14.472;2023-07-09T12:29:09;11.73;;;8.25;;
63370;SDS011;49504;48.336;14.472;2023-07-09T12:32:30;10.65;;;7.85;;
63370;SDS011;49504;48.336;14.472;2023-07-09T12:35:54;9.40;;;7.57;;
63370;SDS011;49504;48.336;14.472;2023-07-09T12:39:22;10.68;;;7.32;;
63370;SDS011;49504;48.336;14.472;2023-07-09T12:42:46;9.30;;;6.57;;
63370;SDS011;49504;48.336;14.472;2023-07-09T12:46:08;11.27;;;6.65;;
63370;SDS011;49504;48.336;14.472;2023-07-09T12:49:31;9.40;;;7.15;;
63370;SDS011;49504;48.336;14.472;2023-07-09T12:53:01;9.25;;;6.50;;
63370;SDS011;49504;48.336;14.472;2023-07-09T12:56:34;9.48;;;6.55;;
63370;SDS011;49504;48.336;14.472;2023-07-09T13:00:48;9.18;;;7.18;;
63370;SDS011;49504;48.336;14.472;2023-07-09T13:04:12;10.38;;;6.25;;
63370;SDS011;49504;48.336;14.472;2023-07-09T13:07:36;9.75;;;7.22;;
63370;SDS011;49504;48.336;14.472;2023-07-09T13:11:00;8.93;;;6.90;;
63370;SDS011;49504;48.336;14.472;2023-07-09T13:14:23;9.18;;;6.60;;
63370;SDS011;49504;48.336;14.472;2023-07-09T13:17:48;8.13;;;6.05;;
63370;SDS011;49504;48.336;14.472;2023-07-09T13:21:13;11.35;;;7.60;;
63370;SDS011;49504;48.336;14.472;2023-07-09T13:24:40;8.50;;;6.53;;
63370;SDS011;49504;48.336;14.472;2023-07-09T13:28:02;8.88;;;6.43;;
63370;SDS011;49504;48.336;14.472;2023-07-09T13:31:24;8.30;;;6.38;;
63370;SDS011;49504;48.336;14.472;2023-07-09T13:34:48;8.85;;;6.05;;
63370;SDS011;49504;48.336;14.472;2023-07-09T13:38:11;8.57;;;6.47;;
63370;SDS011;49504;48.336;14.472;2023-07-09T13:41:34;8.45;;;6.07;;
63370;SDS011;49504;48.336;14.472;2023-07-09T13:44:56;7.60;;;5.97;;
63370;SDS011;49504;48.336;14.472;2023-07-09T13:48:18;8.55;;;6.07;;
63370;SDS011;49504;48.336;14.472;2023-07-09T13:51:42;7.85;;;5.45;;
63370;SDS011;49504;48.336;14.472;2023-07-09T13:55:05;8.02;;;5.80;;
63370;SDS011;49504;48.336;14.472;2023-07-09T13:58:34;9.30;;;5.97;;
63370;SDS011;49504;48.336;14.472;2023-07-09T14:01:56;7.93;;;5.90;;
63370;SDS011;49504;48.336;14.472;2023-07-09T14:05:19;7.85;;;5.95;;
63370;SDS011;49504;48.336;14.472;2023-07-09T14:08:43;8.25;;;5.88;;
63370;SDS011;49504;48.336;14.472;2023-07-09T14:12:04;8.38;;;5.97;;
63370;SDS011;49504;48.336;14.472;2023-07-09T14:15:28;8.18;;;5.88;;
63370;SDS011;49504;48.336;14.472;2023-07-09T14:18:50;9.60;;;6.30;;
63370;SDS011;49504;48.336;14.472;2023-07-09T14:22:19;9.25;;;5.28;;
63370;SDS011;49504;48.336;14.472;2023-07-09T14:25:47;7.70;;;5.45;;
63370;SDS011;49504;48.336;14.472;2023-07-09T14:29:09;8.85;;;5.68;;
63370;SDS011;49504;48.336;14.472;2023-07-09T14:32:33;7.75;;;5.10;;
63370;SDS011;49504;48.336;14.472;2023-07-09T14:35:57;7.53;;;5.32;;
63370;SDS011;49504;48.336;14.472;2023-07-09T14:39:23;9.02;;;5.50;;
63370;SDS011;49504;48.336;14.472;2023-07-09T14:42:48;8.18;;;5.05;;
63370;SDS011;49504;48.336;14.472;2023-07-09T14:46:10;8.77;;;5.60;;
63370;SDS011;49504;48.336;14.472;2023-07-09T14:49:31;7.68;;;5.72;;
63370;SDS011;49504;48.336;14.472;2023-07-09T14:52:52;7.50;;;5.18;;
63370;SDS011;49504;48.336;14.472;2023-07-09T14:56:14;7.78;;;5.38;;
63370;SDS011;49504;48.336;14.472;2023-07-09T14:59:38;8.55;;;5.63;;
63370;SDS011;49504;48.336;14.472;2023-07-09T15:02:59;9.45;;;5.65;;
63370;SDS011;49504;48.336;14.472;2023-07-09T15:06:20;7.57;;;4.88;;
63370;SDS011;49504;48.336;14.472;2023-07-09T15:09:41;7.68;;;4.55;;
63370;SDS011;49504;48.336;14.472;2023-07-09T15:13:04;7.05;;;5.20;;
63370;SDS011;49504;48.336;14.472;2023-07-09T15:16:27;7.47;;;5.05;;
63370;SDS011;49504;48.336;14.472;2023-07-09T15:19:48;6.10;;;4.78;;
63370;SDS011;49504;48.336;14.472;2023-07-09T15:23:09;6.80;;;4.70;;
63370;SDS011;49504;48.336;14.472;2023-07-09T15:26:32;8.40;;;5.00;;
63370;SDS011;49504;48.336;14.472;2023-07-09T15:29:53;7.32;;;4.97;;
63370;SDS011;49504;48.336;14.472;2023-07-09T15:36:35;6.78;;;4.97;;
63370;SDS011;49504;48.336;14.472;2023-07-09T15:39:56;8.05;;;4.70;;
63370;SDS011;49504;48.336;14.472;2023-07-09T15:43:17;7.25;;;4.82;;
63370;SDS011;49504;48.336;14.472;2023-07-09T15:46:39;7.63;;;5.10;;
63370;SDS011;49504;48.336;14.472;2023-07-09T15:50:01;6.80;;;4.78;;
63370;SDS011;49504;48.336;14.472;2023-07-09T15:53:29;7.85;;;5.18;;
63370;SDS011;49504;48.336;14.472;2023-07-09T15:56:51;6.57;;;4.68;;
63370;SDS011;49504;48.336;14.472;2023-07-09T16:03:07;7.78;;;4.85;;
63370;SDS011;49504;48.336;14.472;2023-07-09T16:06:32;8.25;;;4.85;;
63370;SDS011;49504;48.336;14.472;2023-07-09T16:09:53;9.20;;;4.95;;
63370;SDS011;49504;48.336;14.472;2023-07-09T16:13:16;6.68;;;4.70;;
63370;SDS011;49504;48.336;14.472;2023-07-09T16:16:40;6.38;;;4.22;;
63370;SDS011;49504;48.336;14.472;2023-07-09T16:20:02;8.32;;;5.28;;
63370;SDS011;49504;48.336;14.472;2023-07-09T16:23:25;7.30;;;4.57;;
63370;SDS011;49504;48.336;14.472;2023-07-09T16:26:46;6.18;;;4.25;;
63370;SDS011;49504;48.336;14.472;2023-07-09T16:30:10;8.25;;;4.40;;
63370;SDS011;49504;48.336;14.472;2023-07-09T16:33:33;6.20;;;4.40;;
63370;SDS011;49504;48.336;14.472;2023-07-09T16:36:57;7.50;;;4.70;;
63370;SDS011;49504;48.336;14.472;2023-07-09T16:40:19;6.90;;;4.68;;
63370;SDS011;49504;48.336;14.472;2023-07-09T16:43:43;6.63;;;4.10;;
63370;SDS011;49504;48.336;14.472;2023-07-09T16:47:04;6.80;;;3.95;;
63370;SDS011;49504;48.336;14.472;2023-07-09T16:50:36;6.78;;;4.13;;
63370;SDS011;49504;48.336;14.472;2023-07-09T16:53:59;6.03;;;3.97;;
63370;SDS011;49504;48.336;14.472;2023-07-09T16:57:21;6.43;;;4.47;;
63370;SDS011;49504;48.336;14.472;2023-07-09T17:00:44;7.70;;;4.17;;
63370;SDS011;49504;48.336;14.472;2023-07-09T17:04:09;6.93;;;4.38;;
63370;SDS011;49504;48.336;14.472;2023-07-09T17:07:41;6.22;;;4.03;;
63370;SDS011;49504;48.336;14.472;2023-07-09T17:11:03;5.97;;;3.88;;
63370;SDS011;49504;48.336;14.472;2023-07-09T17:14:25;8.32;;;3.90;;
63370;SDS011;49504;48.336;14.472;2023-07-09T17:17:46;7.50;;;3.85;;
63370;SDS011;49504;48.336;14.472;2023-07-09T17:21:08;6.60;;;3.95;;
63370;SDS011;49504;48.336;14.472;2023-07-09T17:24:29;6.85;;;4.18;;
63370;SDS011;49504;48.336;14.472;2023-07-09T17:27:52;6.63;;;4.13;;
63370;SDS011;49504;48.336;14.472;2023-07-09T17:31:13;6.25;;;3.58;;
63370;SDS011;49504;48.336;14.472;2023-07-09T17:34:34;7.65;;;4.28;;
63370;SDS011;49504;48.336;14.472;2023-07-09T17:37:55;6.00;;;3.38;;
63370;SDS011;49504;48.336;14.472;2023-07-09T17:41:16;6.47;;;3.95;;
63370;SDS011;49504;48.336;14.472;2023-07-09T17:44:39;6.03;;;3.75;;
63370;SDS011;49504;48.336;14.472;2023-07-09T17:48:00;6.03;;;3.85;;
63370;SDS011;49504;48.336;14.472;2023-07-09T17:51:21;6.72;;;3.85;;
63370;SDS011;49504;48.336;14.472;2023-07-09T17:54:43;5.35;;;3.55;;
63370;SDS011;49504;48.336;14.472;2023-07-09T17:58:04;6.10;;;3.95;;
63370;SDS011;49504;48.336;14.472;2023-07-09T18:01:27;6.55;;;4.32;;
63370;SDS011;49504;48.336;14.472;2023-07-09T18:04:48;6.00;;;3.72;;
63370;SDS011;49504;48.336;14.472;2023-07-09T18:08:09;5.70;;;3.63;;
63370;SDS011;49504;48.336;14.472;2023-07-09T18:11:32;6.15;;;3.90;;
63370;SDS011;49504;48.336;14.472;2023-07-09T18:14:53;5.10;;;3.58;;
63370;SDS011;49504;48.336;14.472;2023-07-09T18:18:18;6.67;;;3.80;;
63370;SDS011;49504;48.336;14.472;2023-07-09T18:21:40;6.50;;;3.78;;
63370;SDS011;49504;48.336;14.472;2023-07-09T18:25:01;5.32;;;3.50;;
63370;SDS011;49504;48.336;14.472;2023-07-09T18:28:23;5.65;;;3.53;;
63370;SDS011;49504;48.336;14.472;2023-07-09T18:31:49;6.45;;;3.58;;
63370;SDS011;49504;48.336;14.472;2023-07-09T18:35:19;5.82;;;4.03;;
63370;SDS011;49504;48.336;14.472;2023-07-09T18:38:43;6.32;;;3.70;;
63370;SDS011;49504;48.336;14.472;2023-07-09T18:42:07;6.00;;;3.72;;
63370;SDS011;49504;48.336;14.472;2023-07-09T18:45:33;7.40;;;3.88;;
63370;SDS011;49504;48.336;14.472;2023-07-09T18:48:55;5.25;;;3.53;;
63370;SDS011;49504;48.336;14.472;2023-07-09T18:52:18;5.60;;;3.58;;
63370;SDS011;49504;48.336;14.472;2023-07-09T18:55:41;6.80;;;3.97;;
63370;SDS011;49504;48.336;14.472;2023-07-09T18:59:07;9.15;;;4.00;;
63370;SDS011;49504;48.336;14.472;2023-07-09T19:02:35;75.00;;;27.48;;
63370;SDS011;49504;48.336;14.472;2023-07-09T19:05:58;79.65;;;36.05;;
63370;SDS011;49504;48.336;14.472;2023-07-09T19:09:21;62.05;;;28.52;;
63370;SDS011;49504;48.336;14.472;2023-07-09T19:12:45;38.13;;;20.23;;
63370;SDS011;49504;48.336;14.472;2023-07-09T19:16:12;43.53;;;17.90;;
63370;SDS011;49504;48.336;14.472;2023-07-09T19:19:43;33.08;;;16.80;;
63370;SDS011;49504;48.336;14.472;2023-07-09T19:23:07;35.20;;;15.68;;
63370;SDS011;49504;48.336;14.472;2023-07-09T19:26:33;30.27;;;14.20;;
63370;SDS011;49504;48.336;14.472;2023-07-09T19:29:55;27.95;;;13.48;;
63370;SDS011;49504;48.336;14.472;2023-07-09T19:33:16;30.67;;;13.05;;
63370;SDS011;49504;48.336;14.472;2023-07-09T19:36:40;29.48;;;13.43;;
63370;SDS011;49504;48.336;14.472;2023-07-09T19:40:02;26.95;;;12.65;;
63370;SDS011;49504;48.336;14.472;2023-07-09T19:43:26;23.02;;;13.10;;
63370;SDS011;49504;48.336;14.472;2023-07-09T19:49:34;28.83;;;12.63;;
63370;SDS011;49504;48.336;14.472;2023-07-09T19:52:56;23.02;;;11.60;;
63370;SDS011;49504;48.336;14.472;2023-07-09T19:56:20;25.13;;;13.02;;
63370;SDS011;49504;48.336;14.472;2023-07-09T19:59:41;23.15;;;12.40;;
63370;SDS011;49504;48.336;14.472;2023-07-09T20:03:03;22.65;;;11.13;;
63370;SDS011;49504;48.336;14.472;2023-07-09T20:06:30;21.17;;;11.55;;
63370;SDS011;49504;48.336;14.472;2023-07-09T20:09:51;25.65;;;12.15;;
63370;SDS011;49504;48.336;14.472;2023-07-09T20:15:19;20.67;;;10.38;;
63370;SDS011;49504;48.336;14.472;2023-07-09T20:18:43;22.92;;;11.13;;
63370;SDS011;49504;48.336;14.472;2023-07-09T20:22:04;22.60;;;10.95;;
63370;SDS011;49504;48.336;14.472;2023-07-09T20:25:28;20.27;;;10.80;;
63370;SDS011;49504;48.336;14.472;2023-07-09T20:28:50;19.48;;;10.50;;
63370;SDS011;49504;48.336;14.472;2023-07-09T20:32:13;21.33;;;10.48;;
63370;SDS011;49504;48.336;14.472;2023-07-09T20:35:37;20.70;;;10.70;;